Time;durP1;ratioP1;P1;durP2;ratioP2;P2;SDS_P1;SDS_P2;PMS_P1;PMS_P2;Temp;Humidity;BMP_temperature;BMP_pressure;BME280_temperature;BME280_humidity;BME280_pressure;Samples;Min_cycle;Max_cycle;Signal;HPM_P1;HPM_P2
2021/11/19 00:02:14;;;;;;;23.38;14.50;;;5.80;99.90;;;;;;5040177;28;20203;-92
2021/11/19 00:04:40;;;;;;;25.70;14.52;;;5.80;99.90;;;;;;5039323;28;20193;-92
2021/11/19 00:07:06;;;;;;;19.65;14.38;;;5.80;99.90;;;;;;5039429;28;20312;-92
2021/11/19 00:09:32;;;;;;;17.02;13.00;;;5.80;99.90;;;;;;5039724;28;20273;-92
2021/11/19 00:11:58;;;;;;;25.27;15.37;;;5.80;99.90;;;;;;5039834;28;20233;-92
2021/11/19 00:14:25;;;;;;;18.15;13.60;;;5.70;99.90;;;;;;5039543;28;20244;-91
2021/11/19 00:16:55;;;;;;;21.95;13.05;;;5.70;99.90;;;;;;5056877;28;20304;-91
2021/11/19 00:19:22;;;;;;;21.60;13.70;;;5.70;99.90;;;;;;5040024;28;20178;-93
2021/11/19 00:21:48;;;;;;;20.83;13.02;;;5.70;99.90;;;;;;5057162;28;20296;-92
2021/11/19 00:24:14;;;;;;;20.50;12.82;;;5.70;99.90;;;;;;5059717;28;20182;-89
2021/11/19 00:26:40;;;;;;;19.60;13.80;;;5.70;99.90;;;;;;5041277;28;20323;-92
2021/11/19 00:29:07;;;;;;;16.13;11.50;;;5.60;99.90;;;;;;5039054;28;20385;-91
2021/11/19 00:31:33;;;;;;;21.85;12.82;;;5.60;99.90;;;;;;5042091;28;20227;-92
2021/11/19 00:33:59;;;;;;;20.17;13.35;;;5.60;99.90;;;;;;5046961;28;20181;-92
2021/11/19 00:36:28;;;;;;;20.27;12.27;;;5.60;99.90;;;;;;5041307;28;20200;-89
2021/11/19 00:38:56;;;;;;;18.95;13.38;;;5.60;99.90;;;;;;5042605;28;20178;-92
2021/11/19 00:41:24;;;;;;;18.27;12.23;;;5.60;99.90;;;;;;5038580;28;20233;-92
2021/11/19 00:43:49;;;;;;;18.42;11.65;;;5.60;99.90;;;;;;5042163;28;20710;-90
2021/11/19 00:46:15;;;;;;;17.33;12.83;;;5.60;99.90;;;;;;5056391;28;20288;-91
2021/11/19 00:48:43;;;;;;;15.55;11.93;;;5.60;99.90;;;;;;5038768;28;20232;-92
2021/11/19 00:51:19;;;;;;;16.48;12.75;;;5.60;99.90;;;;;;5038835;28;20193;-93
2021/11/19 00:53:48;;;;;;;18.45;12.85;;;5.60;99.90;;;;;;5056508;28;20181;-90
2021/11/19 00:56:20;;;;;;;21.08;12.50;;;5.60;99.90;;;;;;5038691;28;20232;-91
2021/11/19 00:58:49;;;;;;;14.75;11.55;;;5.60;99.90;;;;;;5043285;28;20178;-91
2021/11/19 01:01:20;;;;;;;17.00;11.43;;;5.70;99.90;;;;;;5046392;28;20667;-93
2021/11/19 01:03:46;;;;;;;19.52;13.30;;;5.60;99.90;;;;;;5055968;28;20229;-90
2021/11/19 01:06:13;;;;;;;22.23;12.70;;;5.60;99.90;;;;;;5038459;28;20226;-92
2021/11/19 01:08:38;;;;;;;14.23;10.95;;;5.60;99.90;;;;;;5038051;28;20189;-92
2021/11/19 01:11:07;;;;;;;16.47;11.40;;;5.60;99.90;;;;;;5055715;28;20182;-90
2021/11/19 01:13:35;;;;;;;18.17;10.90;;;5.60;99.90;;;;;;5038333;28;20642;-90
2021/11/19 01:16:09;;;;;;;16.75;13.05;;;5.60;99.90;;;;;;5055705;28;20186;-93
2021/11/19 01:18:42;;;;;;;18.60;11.55;;;5.60;99.90;;;;;;5038225;28;20233;-92
2021/11/19 01:21:13;;;;;;;18.17;12.02;;;5.60;99.90;;;;;;5055666;28;20196;-92
2021/11/19 01:23:39;;;;;;;19.52;13.15;;;5.60;99.90;;;;;;5037890;28;20180;-90
2021/11/19 01:26:08;;;;;;;16.95;11.30;;;5.60;99.90;;;;;;5055425;28;20174;-90
2021/11/19 01:28:36;;;;;;;17.90;13.07;;;5.60;99.90;;;;;;5055459;28;20559;-90
2021/11/19 01:31:08;;;;;;;18.65;12.95;;;5.50;99.90;;;;;;5055648;28;20182;-91
2021/11/19 01:33:34;;;;;;;22.17;13.82;;;5.50;99.90;;;;;;5055805;28;20178;-90
2021/11/19 01:36:00;;;;;;;18.42;13.00;;;5.50;99.90;;;;;;5038167;28;20532;-92
2021/11/19 01:38:26;;;;;;;18.40;12.20;;;5.50;99.90;;;;;;5038449;28;20205;-90
2021/11/19 01:41:01;;;;;;;19.67;13.48;;;5.50;99.90;;;;;;5038832;28;20197;-92
2021/11/19 01:43:27;;;;;;;19.45;14.13;;;5.50;99.90;;;;;;5049776;28;20187;-90
2021/11/19 01:45:58;;;;;;;21.67;13.57;;;5.50;99.90;;;;;;5074118;28;20176;-92
2021/11/19 01:48:28;;;;;;;21.27;13.88;;;5.50;99.90;;;;;;5042970;28;20539;-89
2021/11/19 01:51:01;;;;;;;22.83;15.05;;;5.50;99.90;;;;;;5046315;28;20170;-92
2021/11/19 01:53:41;;;;;;;20.63;14.23;;;5.40;99.90;;;;;;5037936;28;20178;-90
2021/11/19 01:56:24;;;;;;;22.20;13.75;;;5.40;99.90;;;;;;5037526;28;20188;-90
2021/11/19 01:59:18;;;;;;;20.88;13.80;;;5.40;99.90;;;;;;5054997;28;20189;-90
2021/11/19 02:01:52;;;;;;;21.63;13.73;;;5.40;99.90;;;;;;5016376;28;20301;-92
2021/11/19 02:04:26;;;;;;;24.05;15.80;;;5.40;99.90;;;;;;5058980;28;20169;-89
2021/11/19 02:07:07;;;;;;;21.63;14.68;;;5.40;99.90;;;;;;5037469;28;20308;-91
2021/11/19 02:09:43;;;;;;;22.55;15.60;;;5.40;99.90;;;;;;5055197;28;20642;-92
2021/11/19 02:12:17;;;;;;;21.00;13.93;;;5.40;99.90;;;;;;5038156;28;20660;-91
2021/11/19 02:15:07;;;;;;;23.08;14.40;;;5.30;99.90;;;;;;5037467;28;20186;-93
2021/11/19 02:17:33;;;;;;;27.23;13.88;;;5.40;99.90;;;;;;5055038;28;20225;-92
2021/11/19 02:20:05;;;;;;;22.23;13.83;;;5.40;99.90;;;;;;5042970;28;20201;-91
2021/11/19 02:22:35;;;;;;;21.05;14.52;;;5.40;99.90;;;;;;5055639;28;20804;-91
2021/11/19 02:25:15;;;;;;;20.15;14.02;;;5.40;99.90;;;;;;5037192;28;20169;-93
2021/11/19 02:27:43;;;;;;;21.58;14.50;;;5.40;99.90;;;;;;5037039;28;20217;-90
2021/11/19 02:30:14;;;;;;;19.10;13.27;;;5.40;99.90;;;;;;5036884;28;20181;-92
2021/11/19 02:32:45;;;;;;;20.52;14.27;;;5.40;99.90;;;;;;5054983;28;20289;-91
2021/11/19 02:35:16;;;;;;;21.85;13.48;;;5.40;99.90;;;;;;5054951;28;20173;-90
2021/11/19 02:37:57;;;;;;;20.98;13.57;;;5.40;99.90;;;;;;5055168;28;20246;-91
2021/11/19 02:40:29;;;;;;;23.17;14.23;;;5.40;99.90;;;;;;5036796;28;20276;-92
2021/11/19 02:43:00;;;;;;;25.42;14.68;;;5.40;99.90;;;;;;5037071;28;20193;-93
2021/11/19 02:45:33;;;;;;;20.38;13.85;;;5.40;99.90;;;;;;5037043;28;20243;-90
2021/11/19 02:47:59;;;;;;;22.25;14.60;;;5.40;99.90;;;;;;5058038;28;20323;-92
2021/11/19 02:50:25;;;;;;;20.87;13.70;;;5.40;99.90;;;;;;5044429;28;20190;-91
2021/11/19 02:52:53;;;;;;;18.45;12.75;;;5.50;99.90;;;;;;5043333;28;20235;-92
2021/11/19 02:55:23;;;;;;;21.83;14.07;;;5.50;99.90;;;;;;5061029;28;20548;-90
2021/11/19 02:57:49;;;;;;;24.80;14.68;;;5.50;99.90;;;;;;5036869;28;20194;-91
2021/11/19 03:00:41;;;;;;;22.75;14.35;;;5.60;99.90;;;;;;5054276;28;20198;-92
2021/11/19 03:03:07;;;;;;;20.55;13.52;;;5.60;99.90;;;;;;5036781;28;20230;-92
2021/11/19 03:05:32;;;;;;;22.70;15.03;;;5.60;99.90;;;;;;5055676;28;20202;-90
2021/11/19 03:07:58;;;;;;;24.47;15.43;;;5.60;99.90;;;;;;5040642;28;20470;-92
2021/11/19 03:10:28;;;;;;;21.87;14.13;;;5.60;99.90;;;;;;5058334;28;20208;-92
2021/11/19 03:12:54;;;;;;;21.63;13.55;;;5.60;99.90;;;;;;5058676;28;20671;-90
2021/11/19 03:15:30;;;;;;;26.75;13.68;;;5.60;99.90;;;;;;5040725;28;20243;-92
2021/11/19 03:17:56;;;;;;;19.02;13.32;;;5.60;99.90;;;;;;5058304;28;20225;-91
2021/11/19 03:20:24;;;;;;;25.40;15.63;;;5.70;99.90;;;;;;5040244;28;20201;-91
2021/11/19 03:22:51;;;;;;;20.40;14.15;;;5.60;99.90;;;;;;5062287;28;20224;-91
2021/11/19 03:25:21;;;;;;;17.95;11.43;;;5.60;99.90;;;;;;5051764;28;20217;-92
2021/11/19 03:27:47;;;;;;;21.58;15.00;;;5.60;99.90;;;;;;5041499;28;20225;-92
2021/11/19 03:30:16;;;;;;;20.70;12.40;;;5.60;99.90;;;;;;5040206;28;20261;-92
2021/11/19 03:32:42;;;;;;;18.60;12.60;;;5.70;99.90;;;;;;5058997;28;20442;-90
2021/11/19 03:35:09;;;;;;;21.27;14.85;;;5.60;99.90;;;;;;5041842;28;20215;-92
2021/11/19 03:37:35;;;;;;;24.63;15.93;;;5.70;99.90;;;;;;5041647;28;20197;-90
2021/11/19 03:40:01;;;;;;;22.20;14.30;;;5.60;99.90;;;;;;5041314;28;20200;-91
2021/11/19 03:42:27;;;;;;;20.10;14.43;;;5.60;99.90;;;;;;5058467;28;20442;-92
2021/11/19 03:44:59;;;;;;;18.37;12.90;;;5.60;99.90;;;;;;5040675;28;20651;-92
2021/11/19 03:47:45;;;;;;;23.70;13.88;;;5.60;99.90;;;;;;5060743;28;20839;-92
2021/11/19 03:50:16;;;;;;;19.63;13.43;;;5.60;99.90;;;;;;5059007;28;20257;-90
2021/11/19 03:52:43;;;;;;;21.08;13.60;;;5.70;99.90;;;;;;5057835;28;20200;-90
2021/11/19 03:55:22;;;;;;;21.73;13.52;;;5.60;99.90;;;;;;5058398;28;20181;-91
2021/11/19 03:57:48;;;;;;;19.70;12.48;;;5.60;99.90;;;;;;5053247;28;20328;-92
2021/11/19 04:00:22;;;;;;;22.33;13.70;;;5.60;99.90;;;;;;5039613;28;20186;-92
2021/11/19 04:02:48;;;;;;;20.65;14.10;;;5.60;99.90;;;;;;5039625;28;20208;-93
2021/11/19 04:05:14;;;;;;;18.48;13.25;;;5.60;99.90;;;;;;5039536;28;20178;-92
2021/11/19 04:07:40;;;;;;;20.87;13.90;;;5.60;99.90;;;;;;5039500;28;20283;-92
2021/11/19 04:10:06;;;;;;;19.93;13.80;;;5.60;99.90;;;;;;5039538;28;20442;-90
2021/11/19 04:12:32;;;;;;;25.23;14.25;;;5.60;99.90;;;;;;5039709;28;20971;-90
2021/11/19 04:14:58;;;;;;;21.43;13.90;;;5.50;99.90;;;;;;5039186;28;20178;-91
2021/11/19 04:17:23;;;;;;;25.80;13.60;;;5.60;99.90;;;;;;5038519;28;20316;-91
2021/11/19 04:19:49;;;;;;;21.77;14.87;;;5.50;99.90;;;;;;5039160;28;20212;-92
2021/11/19 04:22:17;;;;;;;20.63;14.13;;;5.50;99.90;;;;;;5057217;28;20220;-90
2021/11/19 04:24:50;;;;;;;22.50;14.40;;;5.60;99.90;;;;;;5039096;28;20674;-91
2021/11/19 04:27:16;;;;;;;21.52;14.40;;;5.60;99.90;;;;;;5056783;28;20210;-92
2021/11/19 04:29:42;;;;;;;20.00;13.50;;;5.60;99.90;;;;;;5038946;28;20182;-90
2021/11/19 04:32:09;;;;;;;22.48;12.25;;;5.70;99.90;;;;;;5058775;28;20682;-92
2021/11/19 04:34:40;;;;;;;18.65;12.60;;;5.70;99.90;;;;;;5069081;28;20173;-90
2021/11/19 04:37:05;;;;;;;19.33;12.70;;;5.80;99.90;;;;;;5045300;28;20205;-90
2021/11/19 04:39:31;;;;;;;20.60;13.13;;;5.80;99.90;;;;;;5038962;28;20595;-92
2021/11/19 04:41:57;;;;;;;22.27;13.17;;;5.80;99.90;;;;;;5042065;28;20232;-91
2021/11/19 04:44:23;;;;;;;19.00;12.17;;;5.90;99.90;;;;;;5056316;28;20374;-90
2021/11/19 04:46:49;;;;;;;21.90;14.63;;;5.90;99.90;;;;;;5056193;28;20300;-90
2021/11/19 04:49:15;;;;;;;20.55;14.20;;;6.00;99.90;;;;;;5056261;28;20682;-91
2021/11/19 04:51:42;;;;;;;20.70;13.20;;;6.00;99.90;;;;;;5038597;28;20210;-93
2021/11/19 04:54:10;;;;;;;22.30;13.88;;;6.10;99.90;;;;;;5038324;28;20390;-91
2021/11/19 04:56:37;;;;;;;19.10;12.63;;;6.10;99.90;;;;;;5056395;28;20280;-91
2021/11/19 04:59:04;;;;;;;19.65;12.95;;;6.20;99.90;;;;;;5056108;28;20181;-90
2021/11/19 05:01:33;;;;;;;18.65;13.10;;;6.20;99.90;;;;;;5056705;28;20869;-90
2021/11/19 05:03:59;;;;;;;20.55;12.45;;;6.30;99.90;;;;;;5060750;28;20194;-91
2021/11/19 05:06:26;;;;;;;21.48;13.13;;;6.30;99.90;;;;;;5039055;28;20213;-93
2021/11/19 05:08:52;;;;;;;18.48;13.88;;;6.30;99.90;;;;;;5048907;28;20174;-91
2021/11/19 05:11:26;;;;;;;16.30;12.10;;;6.30;99.90;;;;;;5038108;28;20208;-90
2021/11/19 05:13:52;;;;;;;20.23;13.73;;;6.30;99.90;;;;;;5037571;28;20393;-90
2021/11/19 05:16:18;;;;;;;15.25;11.98;;;6.20;99.90;;;;;;5045168;28;20690;-90
2021/11/19 05:18:45;;;;;;;17.17;13.07;;;6.20;99.90;;;;;;5050113;28;20271;-92
2021/11/19 05:21:14;;;;;;;19.00;12.43;;;6.20;99.90;;;;;;5038226;28;20209;-90
2021/11/19 05:23:40;;;;;;;18.77;13.15;;;6.10;99.90;;;;;;5055315;28;20566;-90
2021/11/19 05:26:05;;;;;;;17.33;11.27;;;6.10;99.90;;;;;;5037637;28;20199;-92
2021/11/19 05:28:31;;;;;;;18.73;12.27;;;6.20;99.90;;;;;;5037851;28;20473;-90
2021/11/19 05:30:57;;;;;;;19.33;13.43;;;6.20;99.90;;;;;;5055438;28;20181;-89
2021/11/19 05:33:26;;;;;;;20.50;13.52;;;6.20;99.90;;;;;;5056055;28;20170;-91
2021/11/19 05:35:52;;;;;;;74.95;41.40;;;6.20;99.90;;;;;;5049192;28;20182;-92
2021/11/19 05:38:20;;;;;;;27.27;18.73;;;6.30;99.90;;;;;;5054325;28;20330;-89
2021/11/19 05:40:46;;;;;;;39.60;27.33;;;6.30;99.90;;;;;;5051986;28;20164;-91
2021/11/19 05:43:12;;;;;;;26.98;17.65;;;6.30;99.90;;;;;;5055276;28;20667;-91
2021/11/19 05:45:38;;;;;;;28.88;21.25;;;6.30;99.90;;;;;;5055772;28;20323;-90
2021/11/19 05:48:06;;;;;;;22.63;15.57;;;6.30;99.90;;;;;;5055734;28;20292;-91
2021/11/19 05:50:33;;;;;;;23.30;15.25;;;6.30;99.90;;;;;;5055206;28;20635;-92
2021/11/19 05:53:00;;;;;;;22.40;14.25;;;6.30;99.90;;;;;;5054623;28;20209;-91
2021/11/19 05:55:28;;;;;;;23.88;16.25;;;6.30;99.90;;;;;;5041052;28;20643;-90
2021/11/19 05:57:54;;;;;;;21.25;15.60;;;6.30;99.90;;;;;;5037705;28;20201;-90
2021/11/19 06:00:25;;;;;;;20.98;14.48;;;6.30;99.90;;;;;;5049024;28;20194;-91
2021/11/19 06:02:52;;;;;;;26.13;16.75;;;6.30;99.90;;;;;;5026142;28;20213;-90
2021/11/19 06:05:18;;;;;;;31.98;22.25;;;6.30;99.90;;;;;;5041399;28;20189;-91
2021/11/19 06:07:47;;;;;;;33.78;22.98;;;6.30;99.90;;;;;;5022102;28;20663;-91
2021/11/19 06:10:18;;;;;;;30.85;18.90;;;6.30;99.90;;;;;;5028945;28;20182;-90
2021/11/19 06:12:49;;;;;;;23.85;17.30;;;6.30;99.90;;;;;;5041933;28;20201;-92
2021/11/19 06:15:20;;;;;;;22.73;16.38;;;6.30;99.90;;;;;;5054678;28;20206;-92
2021/11/19 06:17:51;;;;;;;25.70;19.00;;;6.30;99.90;;;;;;5026659;28;20238;-91
2021/11/19 06:20:24;;;;;;;21.42;15.65;;;6.30;99.90;;;;;;5039509;28;20248;-91
2021/11/19 06:22:53;;;;;;;20.48;15.45;;;6.40;99.90;;;;;;5026264;28;20206;-91
2021/11/19 06:25:24;;;;;;;19.70;14.23;;;6.40;99.90;;;;;;5026725;28;20300;-90
2021/11/19 06:27:52;;;;;;;24.45;17.20;;;6.40;99.90;;;;;;5030056;28;20221;-92
2021/11/19 06:30:20;;;;;;;45.17;29.83;;;6.40;99.90;;;;;;5038583;28;20528;-91
2021/11/19 06:32:46;;;;;;;48.83;34.78;;;6.40;99.90;;;;;;5055962;28;20299;-91
2021/11/19 06:35:12;;;;;;;28.40;21.07;;;6.40;99.90;;;;;;5046020;28;20610;-91
2021/11/19 06:37:38;;;;;;;24.80;17.20;;;6.40;99.90;;;;;;5062595;28;20429;-90
2021/11/19 06:40:11;;;;;;;32.33;26.70;;;6.40;99.90;;;;;;5022349;28;20443;-90
2021/11/19 06:42:37;;;;;;;24.30;17.60;;;6.40;99.90;;;;;;5046605;28;20425;-91
2021/11/19 06:45:04;;;;;;;22.90;17.27;;;6.50;99.90;;;;;;5038902;28;20277;-91
2021/11/19 06:47:30;;;;;;;21.60;14.18;;;6.50;99.90;;;;;;5057344;28;20240;-92
2021/11/19 06:49:56;;;;;;;17.75;14.63;;;6.50;99.90;;;;;;5037417;28;20223;-91
2021/11/19 06:52:22;;;;;;;23.58;16.00;;;6.50;99.90;;;;;;5047055;28;20201;-92
2021/11/19 06:54:48;;;;;;;17.97;13.60;;;6.50;99.90;;;;;;5056942;28;20657;-91
2021/11/19 06:57:13;;;;;;;19.30;13.07;;;6.60;99.90;;;;;;5028151;28;20197;-91
2021/11/19 06:59:42;;;;;;;18.77;12.50;;;6.60;99.90;;;;;;5026571;28;20178;-89
2021/11/19 07:02:13;;;;;;;14.00;11.23;;;6.60;99.90;;;;;;5037146;28;20210;-92
2021/11/19 07:04:38;;;;;;;22.77;12.48;;;6.70;99.90;;;;;;5021582;28;20495;-89
2021/11/19 07:07:07;;;;;;;20.90;12.77;;;6.70;99.90;;;;;;5044772;28;20221;-90
2021/11/19 07:09:33;;;;;;;18.55;12.73;;;6.80;99.90;;;;;;5037608;28;20178;-91
2021/11/19 07:12:00;;;;;;;21.52;14.95;;;6.80;99.90;;;;;;5016959;28;20210;-90
2021/11/19 07:14:26;;;;;;;18.98;14.50;;;6.80;99.90;;;;;;5020732;28;20175;-91
2021/11/19 07:16:52;;;;;;;20.48;14.18;;;6.80;99.90;;;;;;5027294;28;20273;-90
2021/11/19 07:19:19;;;;;;;20.90;13.93;;;6.90;99.90;;;;;;5048752;28;20197;-91
2021/11/19 07:21:45;;;;;;;18.38;14.15;;;6.90;99.90;;;;;;5054630;28;20209;-91
2021/11/19 07:24:12;;;;;;;21.80;15.47;;;6.90;99.90;;;;;;5053311;28;20192;-92
2021/11/19 07:26:37;;;;;;;19.45;14.60;;;7.00;99.90;;;;;;5029106;28;20769;-90
2021/11/19 07:29:04;;;;;;;19.70;12.60;;;7.00;99.90;;;;;;5032826;28;20170;-91
2021/11/19 07:31:30;;;;;;;16.65;12.18;;;7.10;99.90;;;;;;5030828;28;20499;-91
2021/11/19 07:33:56;;;;;;;19.27;12.57;;;7.20;99.90;;;;;;5043658;28;20213;-92
2021/11/19 07:36:23;;;;;;;13.50;10.57;;;7.30;99.90;;;;;;5031589;28;20209;-91
2021/11/19 07:38:49;;;;;;;18.60;12.95;;;7.30;99.90;;;;;;5040989;28;20396;-90
2021/11/19 07:41:18;;;;;;;17.45;12.60;;;7.40;99.90;;;;;;5054338;28;20247;-90
2021/11/19 07:43:44;;;;;;;14.10;9.77;;;7.40;99.90;;;;;;5027461;28;20210;-89
2021/11/19 07:46:12;;;;;;;13.93;11.67;;;7.40;99.90;;;;;;5046354;28;20638;-90
2021/11/19 07:48:39;;;;;;;17.48;11.43;;;7.40;99.90;;;;;;5023827;28;20179;-91
2021/11/19 07:51:09;;;;;;;18.27;12.32;;;7.50;99.90;;;;;;5024301;28;20519;-91
2021/11/19 07:53:35;;;;;;;17.55;13.40;;;7.50;99.90;;;;;;5026401;28;20542;-92
2021/11/19 07:56:03;;;;;;;17.57;12.40;;;7.60;99.90;;;;;;5027937;28;20189;-90
2021/11/19 07:58:29;;;;;;;18.55;12.18;;;7.60;99.90;;;;;;5042598;28;20405;-91
2021/11/19 08:00:56;;;;;;;19.95;13.60;;;7.60;99.90;;;;;;5032554;28;20174;-92
2021/11/19 08:03:22;;;;;;;18.33;13.18;;;7.70;99.90;;;;;;5028662;28;20718;-92
2021/11/19 08:05:55;;;;;;;17.83;12.10;;;7.80;99.90;;;;;;5027849;28;20297;-91
2021/11/19 08:08:21;;;;;;;17.38;11.52;;;7.90;99.90;;;;;;5048550;28;20219;-90
2021/11/19 08:10:48;;;;;;;16.58;11.73;;;8.00;99.90;;;;;;5029914;28;20178;-91
2021/11/19 08:13:14;;;;;;;16.40;10.80;;;8.10;99.90;;;;;;5034714;28;20197;-92
2021/11/19 08:15:41;;;;;;;13.75;9.70;;;8.10;99.90;;;;;;5030963;28;20252;-92
2021/11/19 08:18:24;;;;;;;15.57;10.15;;;8.20;99.90;;;;;;5027921;28;20760;-92
2021/11/19 08:20:54;;;;;;;14.38;9.80;;;8.30;99.90;;;;;;5027173;28;20174;-92
2021/11/19 08:23:34;;;;;;;15.07;9.13;;;8.40;99.90;;;;;;5030784;28;20182;-91
2021/11/19 08:26:14;;;;;;;13.75;10.00;;;8.50;99.90;;;;;;5026006;28;20335;-93
2021/11/19 08:28:41;;;;;;;14.45;8.93;;;8.60;99.90;;;;;;5027552;28;20892;-90
2021/11/19 08:31:16;;;;;;;13.95;9.68;;;8.70;99.90;;;;;;5024318;28;20183;-91
2021/11/19 08:33:42;;;;;;;13.27;10.63;;;8.80;99.90;;;;;;5023864;28;20189;-91
2021/11/19 08:36:08;;;;;;;15.68;11.10;;;8.90;99.90;;;;;;5026108;28;20214;-89
2021/11/19 08:38:34;;;;;;;15.70;11.50;;;9.00;99.90;;;;;;5024943;28;20186;-92
2021/11/19 08:41:01;;;;;;;14.00;9.48;;;9.00;99.90;;;;;;5029475;28;20189;-88
2021/11/19 08:43:32;;;;;;;25.52;18.67;;;9.10;99.90;;;;;;5027296;28;20259;-89
2021/11/19 08:46:01;;;;;;;20.85;16.85;;;9.20;99.90;;;;;;5024715;28;20179;-90
2021/11/19 08:48:28;;;;;;;15.70;10.30;;;9.30;99.90;;;;;;5029626;28;20222;-90
2021/11/19 08:50:56;;;;;;;15.77;10.95;;;9.30;99.90;;;;;;5031312;28;20724;-92
2021/11/19 08:53:23;;;;;;;16.60;11.05;;;9.40;99.90;;;;;;5027907;28;20179;-91
2021/11/19 08:55:53;;;;;;;21.30;15.57;;;9.40;99.90;;;;;;5020383;28;20274;-89
2021/11/19 08:58:25;;;;;;;15.15;10.57;;;9.50;99.90;;;;;;5021278;28;20186;-90
2021/11/19 09:00:52;;;;;;;18.67;13.05;;;9.50;99.90;;;;;;5026845;28;20533;-93
2021/11/19 09:03:17;;;;;;;14.50;10.80;;;9.50;99.90;;;;;;5030966;28;20193;-90
2021/11/19 09:05:45;;;;;;;18.23;11.87;;;9.50;99.90;;;;;;5033808;28;20179;-90
2021/11/19 09:08:16;;;;;;;15.43;10.32;;;9.50;99.90;;;;;;5028839;28;20218;-90
2021/11/19 09:10:43;;;;;;;15.70;10.40;;;9.50;99.90;;;;;;5029676;28;20190;-91
2021/11/19 09:13:10;;;;;;;16.60;11.32;;;9.50;99.90;;;;;;5024032;28;20209;-92
2021/11/19 09:15:37;;;;;;;16.30;11.88;;;9.50;99.90;;;;;;5031916;28;20651;-91
2021/11/19 09:18:17;;;;;;;13.98;10.60;;;9.60;99.90;;;;;;5034794;28;20238;-89
2021/11/19 09:20:55;;;;;;;12.93;10.00;;;9.60;99.90;;;;;;5035396;28;20204;-90
2021/11/19 09:23:25;;;;;;;14.98;11.43;;;9.60;99.90;;;;;;5045332;28;20190;-90
2021/11/19 09:25:55;;;;;;;14.82;10.90;;;9.60;99.90;;;;;;5027107;28;20182;-91
2021/11/19 09:28:23;;;;;;;13.98;11.05;;;9.70;99.90;;;;;;5030488;28;20213;-91
2021/11/19 09:30:54;;;;;;;14.30;11.00;;;9.70;99.90;;;;;;5025984;28;20179;-93
2021/11/19 09:33:22;;;;;;;13.85;10.25;;;9.80;99.90;;;;;;5026445;28;20197;-92
2021/11/19 09:35:49;;;;;;;16.23;10.90;;;10.00;99.90;;;;;;5022276;28;20189;-92
2021/11/19 09:38:17;;;;;;;14.35;10.35;;;10.10;99.90;;;;;;5025653;28;20209;-89
2021/11/19 09:40:55;;;;;;;15.27;10.57;;;10.20;99.90;;;;;;5017489;28;20185;-90
2021/11/19 09:43:43;;;;;;;13.40;10.48;;;10.30;99.90;;;;;;5034271;28;20232;-90
2021/11/19 09:46:27;;;;;;;12.52;9.85;;;10.40;99.90;;;;;;5040788;28;20228;-91
2021/11/19 09:48:52;;;;;;;17.25;9.73;;;10.50;99.90;;;;;;5046660;28;20223;-92
2021/11/19 09:51:49;;;;;;;15.70;10.23;;;10.50;99.90;;;;;;5016623;28;20224;-93
2021/11/19 09:55:02;;;;;;;14.73;11.00;;;10.60;99.90;;;;;;5038204;28;20190;-91
2021/11/19 09:57:46;;;;;;;14.90;9.95;;;10.60;99.90;;;;;;5043451;28;20200;-91
2021/11/19 10:00:26;;;;;;;13.38;10.32;;;10.60;99.90;;;;;;5027401;28;20205;-90
2021/11/19 10:03:25;;;;;;;14.55;11.27;;;10.60;99.90;;;;;;5046090;28;21257;-94
2021/11/19 10:06:06;;;;;;;17.13;10.55;;;10.50;99.90;;;;;;5042952;28;20460;-92
2021/11/19 10:08:55;;;;;;;14.18;10.80;;;10.50;99.90;;;;;;5045226;28;20210;-92
2021/11/19 10:11:33;;;;;;;17.70;9.68;;;10.60;99.90;;;;;;5034614;28;20218;-92
2021/11/19 10:14:33;;;;;;;15.57;11.02;;;10.60;99.90;;;;;;5026283;28;20326;-92
2021/11/19 10:17:37;;;;;;;14.52;10.55;;;10.60;99.90;;;;;;5022815;28;20239;-92
2021/11/19 10:20:29;;;;;;;16.23;10.05;;;10.70;99.90;;;;;;5024557;28;20269;-92
2021/11/19 10:23:06;;;;;;;15.13;10.40;;;10.70;99.90;;;;;;5016806;28;20203;-92
2021/11/19 10:25:52;;;;;;;15.68;10.07;;;10.80;99.90;;;;;;5017178;28;20179;-91
2021/11/19 10:28:45;;;;;;;15.90;10.25;;;10.80;99.90;;;;;;5021807;28;20210;-92
2021/11/19 10:31:16;;;;;;;20.02;11.30;;;10.90;99.90;;;;;;5024942;28;20210;-90
2021/11/19 10:34:15;;;;;;;14.15;10.18;;;11.00;99.90;;;;;;5023931;28;20183;-91
2021/11/19 10:36:47;;;;;;;13.85;9.40;;;11.10;99.90;;;;;;5017395;28;20211;-92
2021/11/19 10:39:47;;;;;;;11.02;8.88;;;11.20;99.90;;;;;;5034074;28;20256;-91
2021/11/19 10:42:42;;;;;;;13.25;8.50;;;11.20;99.90;;;;;;5028674;28;20217;-90
2021/11/19 10:45:44;;;;;;;14.48;9.27;;;11.30;99.90;;;;;;5023182;28;20191;-92
2021/11/19 10:48:23;;;;;;;17.20;9.85;;;11.40;99.90;;;;;;5027930;28;20695;-91
2021/11/19 10:51:13;;;;;;;14.95;10.45;;;11.40;99.90;;;;;;5029047;28;20261;-90
2021/11/19 10:54:03;;;;;;;13.98;9.55;;;11.50;99.90;;;;;;5025324;28;20213;-90
2021/11/19 10:56:37;;;;;;;14.98;10.23;;;11.40;99.90;;;;;;5033052;28;20690;-91
2021/11/19 10:59:31;;;;;;;13.30;9.77;;;11.40;99.90;;;;;;5018945;28;20201;-92
2021/11/19 11:02:32;;;;;;;12.45;9.50;;;11.40;99.90;;;;;;5022567;28;20214;-92
2021/11/19 11:05:00;;;;;;;13.63;9.13;;;11.50;99.90;;;;;;5018254;28;20707;-90
2021/11/19 11:07:30;;;;;;;14.68;9.07;;;11.70;99.90;;;;;;5017640;28;20228;-91
2021/11/19 11:09:59;;;;;;;14.10;9.32;;;11.70;99.90;;;;;;5024188;28;20170;-91
2021/11/19 11:12:43;;;;;;;18.00;15.15;;;11.80;99.90;;;;;;5010297;28;20219;-92
2021/11/19 11:15:23;;;;;;;13.38;9.95;;;11.80;99.90;;;;;;5023878;28;20597;-90
2021/11/19 11:18:15;;;;;;;13.68;11.75;;;11.90;99.90;;;;;;5020197;28;20281;-92
2021/11/19 11:21:07;;;;;;;13.70;9.75;;;11.90;99.90;;;;;;5026853;28;20185;-91
2021/11/19 11:23:52;;;;;;;12.82;8.93;;;12.00;99.90;;;;;;5010654;28;20228;-91
2021/11/19 11:26:27;;;;;;;16.02;10.32;;;12.00;99.90;;;;;;5022411;28;20206;-90
2021/11/19 11:29:19;;;;;;;11.32;8.63;;;12.10;99.90;;;;;;5021002;28;20543;-93
2021/11/19 11:31:54;;;;;;;13.63;8.60;;;12.10;99.90;;;;;;5020267;28;20230;-93
2021/11/19 11:34:23;;;;;;;10.75;8.30;;;12.10;99.90;;;;;;5026270;28;20567;-92
2021/11/19 11:37:17;;;;;;;12.35;8.30;;;12.10;99.90;;;;;;5023625;28;20575;-91
2021/11/19 11:39:52;;;;;;;11.35;8.43;;;12.20;99.90;;;;;;5031836;28;20278;-90
2021/11/19 11:42:26;;;;;;;12.13;8.25;;;12.20;99.90;;;;;;5022652;28;20285;-93
2021/11/19 11:44:59;;;;;;;16.08;10.65;;;12.20;99.90;;;;;;5025238;28;20182;-92
2021/11/19 11:47:59;;;;;;;12.97;8.43;;;12.20;99.90;;;;;;5026156;28;20222;-93
2021/11/19 11:50:37;;;;;;;12.65;8.90;;;12.30;99.90;;;;;;5002900;28;20494;-90
2021/11/19 11:53:14;;;;;;;11.68;7.97;;;12.30;99.90;;;;;;5027191;28;20217;-92
2021/11/19 11:55:45;;;;;;;13.88;8.30;;;12.40;99.90;;;;;;5020445;28;20216;-90
2021/11/19 11:58:17;;;;;;;11.73;8.02;;;12.40;99.90;;;;;;5030975;28;20210;-90
2021/11/19 12:01:24;;;;;;;12.10;8.43;;;12.40;99.90;;;;;;5022737;28;20192;-90
2021/11/19 12:04:06;;;;;;;12.50;7.90;;;12.40;99.90;;;;;;5006430;28;20187;-91
2021/11/19 12:06:50;;;;;;;12.32;8.23;;;12.40;99.90;;;;;;5004545;28;20203;-90
2021/11/19 12:09:37;;;;;;;13.03;7.80;;;12.50;99.90;;;;;;5012289;28;20190;-89
2021/11/19 12:12:32;;;;;;;13.40;8.73;;;12.50;99.90;;;;;;5020345;28;20841;-89
2021/11/19 12:15:01;;;;;;;14.25;8.70;;;12.50;99.90;;;;;;5023934;28;20522;-89
2021/11/19 12:17:37;;;;;;;13.87;9.67;;;12.60;99.90;;;;;;5038182;28;20234;-92
2021/11/19 12:20:17;;;;;;;12.60;7.70;;;12.60;99.90;;;;;;5033417;28;20430;-90
2021/11/19 12:23:05;;;;;;;13.13;8.83;;;12.60;99.90;;;;;;5031856;28;20513;-91
2021/11/19 12:25:45;;;;;;;16.02;11.73;;;12.60;99.90;;;;;;5036198;28;20530;-90
2021/11/19 12:28:23;;;;;;;11.20;8.95;;;12.60;99.90;;;;;;5025823;28;20229;-90
2021/11/19 12:31:09;;;;;;;20.33;11.63;;;12.60;99.90;;;;;;5047947;28;20566;-91
2021/11/19 12:33:39;;;;;;;19.80;13.00;;;12.60;99.90;;;;;;5049723;28;20509;-89
2021/11/19 12:36:07;;;;;;;15.77;10.67;;;12.60;99.90;;;;;;5046147;28;20417;-89
2021/11/19 12:38:36;;;;;;;13.82;8.60;;;12.60;99.90;;;;;;5033028;28;20420;-92
2021/11/19 12:41:30;;;;;;;13.33;9.97;;;12.60;99.90;;;;;;5054026;28;20182;-91
2021/11/19 12:44:32;;;;;;;11.33;8.33;;;12.70;99.90;;;;;;5028369;28;20489;-93
2021/11/19 12:47:25;;;;;;;10.60;8.13;;;12.70;99.90;;;;;;5035806;28;20489;-91
2021/11/19 12:50:06;;;;;;;10.90;7.80;;;12.70;99.90;;;;;;5032859;28;20507;-90
2021/11/19 12:52:57;;;;;;;12.53;8.60;;;12.60;99.90;;;;;;5038027;28;20994;-89
2021/11/19 12:55:25;;;;;;;11.67;6.97;;;12.60;99.90;;;;;;5031091;28;20835;-89
2021/11/19 12:57:58;;;;;;;10.40;8.20;;;12.60;99.90;;;;;;5047669;28;20490;-89
2021/11/19 13:00:35;;;;;;;11.43;9.17;;;12.60;99.90;;;;;;5032693;28;20454;-91
2021/11/19 13:03:23;;;;;;;12.00;8.80;;;12.60;99.90;;;;;;5024349;28;21075;-90